Search for airport 
image banner adimage banner adimage banner ad
image banner ad

3PA8 - Harris

Located in Lincoln University, United States

ICAO - 3PA8, IATA -

Data provided by Airmate  

General information

Coordinates: N39°49'13" W75°55'33"
Elevation is 575 feet MSL.
Magnetic variation is -11° East
View others Airports in Pennsylvania

Operational data

Special qualification required
Current time UTC:
Current local time:
Weather at : KMQS - Chester County G O Carlson ( 18 km )
METAR: KMQS 091215Z AUTO 29004KT 10SM BKN120 07/03 A3012 RMK AO2
View NOTAMs / SUP AIP / TFR affecting this airport [VIEW]
Communications frequencies: [VIEW]

Runways:

RWY identifierQFULength (ft)Width (ft)SurfaceLDA (ft)
N1500100GRASS
S1500100GRASS

Airport contact information

Address: Lincoln University United States

Satellite view of 3PA8